Darstellungsparameter: Aktuell verwendete Einstellungen:
Skalierung der Graphiken ... ?
xyx+y,   Skalierungsfaktor:      Skalierung: Modus: x, Faktor: 1
Darstellungszeitraum ... ?
Vom - - bis: - -   Zeitraum: 29.08.2010 - 29.08.2010
Min/Max/Avg-Anzeige ... ?
Zeige MMA aktuell
Zeige MMA Monat
Zeige MMA alles
Zeige --A aktuell
Zeige --A Monat
Zeige --A alles
Keine MMA-Anzeige
MMA:
Average (ber die Originaldaten)
MMA-Basis: 29.08.2010 - 29.08.2010
Quicknavigation für Darstellung... ?
Tage:      1T, 2T, 3T, 5T -1T -2T -3T -5T +1T +2T +3T +5T
Wochen: 1W, 2W, 3W -1W -2W -3W +1W +2W +3W
Monate: 1M, 3M, 6M -1M -3M -6M +1M +3M +6M
Jahre:    1J, 3J, 5J, 10J -1J -3J -5J -10J +1J +3J +5J +10J
Nutze für die Darstellung ... ?
Originaldaten oder Mittelwerte auf ...
Stundenbasis Tagesbasis Wochenbasis
Monatsbasis Jahresbasis      Datenbasis: Original-Daten
Darstellen als:
Statistik (Auto) Statistik J:M      Darstellung:
Zur Graphik,    zurück zur Übersicht aller Sensoren.
 
Tabellarische Datenbersicht: ?
 
Sensor: Nr:Datum:Temp:Abs-Feuchte:Windchill:Wind:
Aussen-T/F 1 29-08-2010 00:08:03 11.8 C 8.42 g/m*3 11.8 C 0 km/h
2 29-08-2010 00:20:03 11.8 C 8.42 g/m*3 11.8 C 0 km/h
3 29-08-2010 00:32:03 11.9 C 8.58 g/m*3 11.9 C 0 km/h
4 29-08-2010 00:44:03 12 C 8.53 g/m*3 12 C 0 km/h
5 29-08-2010 00:56:03 12 C 8.42 g/m*3 12 C 0 km/h
6 29-08-2010 01:08:03 11.7 C 8.47 g/m*3 11.7 C 0 km/h
7 29-08-2010 01:20:03 11.5 C 8.37 g/m*3 11.5 C 0 km/h
8 29-08-2010 01:32:03 11.5 C 8.47 g/m*3 11.5 C 0 km/h
9 29-08-2010 01:44:03 11.4 C 8.42 g/m*3 11.4 C 0 km/h
10 29-08-2010 01:56:03 11.4 C 8.52 g/m*3 11.4 C 0 km/h
11 29-08-2010 02:08:03 11.7 C 8.58 g/m*3 11.7 C 0 km/h
12 29-08-2010 02:20:03 11.7 C 8.47 g/m*3 11.7 C 0 km/h
13 29-08-2010 02:32:03 11.7 C 8.58 g/m*3 11.7 C 0 km/h
14 29-08-2010 02:44:04 11.8 C 8.53 g/m*3 11.8 C 0 km/h
15 29-08-2010 02:56:04 11.8 C 8.53 g/m*3 11.8 C 0 km/h
16 29-08-2010 03:08:04 11.8 C 8.42 g/m*3 11.8 C 0 km/h
17 29-08-2010 03:20:04 11.8 C 8.53 g/m*3 11.8 C 0 km/h
18 29-08-2010 03:32:04 11.8 C 8.53 g/m*3 11.8 C 0 km/h
19 29-08-2010 03:44:04 11.7 C 8.47 g/m*3 11.7 C 0 km/h
20 29-08-2010 03:56:04 11.7 C 8.47 g/m*3 11.7 C 0 km/h
21 29-08-2010 04:08:04 11.6 C 8.42 g/m*3 11.6 C 0 km/h
22 29-08-2010 04:20:04 11.4 C 8.31 g/m*3 11.4 C 0 km/h
23 29-08-2010 04:32:04 11.4 C 8.42 g/m*3 11.4 C 0 km/h
24 29-08-2010 04:44:04 11.4 C 8.42 g/m*3 11.4 C 0 km/h
25 29-08-2010 04:56:04 11.7 C 8.37 g/m*3 11.7 C 0 km/h
Sensor: Nr:Datum:Temp:Abs-Feuchte:Windchill:Wind:
Aussen-T/F 26 29-08-2010 05:08:04 11.8 C 8.31 g/m*3 11.8 C 0 km/h
27 29-08-2010 05:20:04 11.7 C 8.26 g/m*3 11.7 C 0 km/h
28 29-08-2010 05:32:04 11.7 C 8.26 g/m*3 11.7 C 0 km/h
29 29-08-2010 05:44:04 11.7 C 8.37 g/m*3 11.7 C 0 km/h
30 29-08-2010 05:56:04 11.8 C 8.42 g/m*3 11.8 C 0 km/h
31 29-08-2010 06:08:04 12.2 C 8.31 g/m*3 12.2 C 0 km/h
32 29-08-2010 06:20:04 12.1 C 8.26 g/m*3 12.1 C 0 km/h
33 29-08-2010 06:32:04 12.2 C 8.2 g/m*3 12.2 C 0 km/h
34 29-08-2010 06:44:04 12 C 8.31 g/m*3 12 C 0 km/h
35 29-08-2010 06:56:04 12 C 8.42 g/m*3 12 C 0 km/h
36 29-08-2010 07:08:02 12.1 C 8.36 g/m*3 12.1 C 0 km/h
37 29-08-2010 07:20:02 12.2 C 8.31 g/m*3 12.2 C 0 km/h
38 29-08-2010 07:32:02 12.2 C 8.31 g/m*3 12.2 C 0 km/h
39 29-08-2010 07:44:02 12.2 C 8.31 g/m*3 12.2 C 0 km/h
40 29-08-2010 07:56:02 12.3 C 8.36 g/m*3 12.3 C 0 km/h
41 29-08-2010 08:08:02 12.1 C 8.36 g/m*3 12.1 C 0 km/h
42 29-08-2010 08:20:01 12.2 C 8.42 g/m*3 12.2 C 0 km/h
43 29-08-2010 08:32:02 12.5 C 8.36 g/m*3 12.5 C 0 km/h
44 29-08-2010 08:44:02 12.6 C 8.3 g/m*3 12.6 C 0 km/h
45 29-08-2010 08:56:01 12.8 C 8.29 g/m*3 12.8 C 0 km/h
46 29-08-2010 09:08:02 13.5 C 8.3 g/m*3 13.5 C 0 km/h
47 29-08-2010 09:20:02 13.8 C 8.1 g/m*3 13.8 C 0 km/h
48 29-08-2010 09:32:01 14 C 8.08 g/m*3 14 C 0 km/h
49 29-08-2010 09:44:01 14.3 C 8.23 g/m*3 14.3 C 0 km/h
50 29-08-2010 09:56:03 14.4 C 8.16 g/m*3 14.4 C 0 km/h
Sensor: Nr:Datum:Temp:Abs-Feuchte:Windchill:Wind:
Aussen-T/F 51 29-08-2010 10:08:03 14.9 C 8.28 g/m*3 14.9 C 0 km/h
52 29-08-2010 10:20:03 15.3 C 7.97 g/m*3 15.3 C 0 km/h
53 29-08-2010 10:32:02 15.3 C 7.97 g/m*3 15.3 C 0 km/h
54 29-08-2010 10:44:02 15.7 C 8.03 g/m*3 15.7 C 0 km/h
55 29-08-2010 10:56:01 15.8 C 7.94 g/m*3 15.8 C 0 km/h
56 29-08-2010 11:08:02 16.3 C 8.05 g/m*3 16.3 C 0 km/h
57 29-08-2010 11:20:01 16.4 C 7.96 g/m*3 16.4 C 0 km/h
58 29-08-2010 11:32:01 16.6 C 7.91 g/m*3 16.6 C 0 km/h
59 29-08-2010 11:44:01 16 C 7.77 g/m*3 16 C 0 km/h
60 29-08-2010 11:56:01 16 C 7.9 g/m*3 16 C 0 km/h
61 29-08-2010 12:08:01 15.9 C 7.85 g/m*3 15.9 C 0 km/h
62 29-08-2010 12:20:02 14 C 9.17 g/m*3 14 C 0 km/h
63 29-08-2010 12:32:01 14.6 C 9.76 g/m*3 14.6 C 0 km/h
64 29-08-2010 12:44:01 15.1 C 9.16 g/m*3 15.1 C 0 km/h
65 29-08-2010 12:56:03 16 C 9.13 g/m*3 16 C 0 km/h
66 29-08-2010 13:08:02 16.9 C 8.92 g/m*3 16.9 C 0 km/h
67 29-08-2010 13:20:02 16.9 C 8.63 g/m*3 16.9 C 0 km/h
68 29-08-2010 13:32:02 16.4 C 8.37 g/m*3 16.4 C 0 km/h
69 29-08-2010 13:44:02 15.3 C 8.62 g/m*3 15.3 C 0 km/h
70 29-08-2010 13:56:02 14.7 C 8.94 g/m*3 14.7 C 0 km/h
71 29-08-2010 14:08:01 15.2 C 8.83 g/m*3 15.2 C 0 km/h
72 29-08-2010 14:20:02 16.4 C 8.51 g/m*3 16.4 C 0 km/h
73 29-08-2010 14:32:02 17 C 7.96 g/m*3 17 C 0 km/h
74 29-08-2010 14:44:02 17.1 C 8.3 g/m*3 17.1 C 0 km/h
75 29-08-2010 14:56:01 16.6 C 8.33 g/m*3 16.6 C 0 km/h
Sensor: Nr:Datum:Temp:Abs-Feuchte:Windchill:Wind:
Aussen-T/F 76 29-08-2010 15:08:01 15.7 C 8.3 g/m*3 15.7 C 0 km/h
77 29-08-2010 15:20:01 15.5 C 8.2 g/m*3 15.5 C 0 km/h
78 29-08-2010 15:32:02 14.2 C 8.91 g/m*3 14.2 C 0 km/h
79 29-08-2010 15:44:02 14.7 C 9.69 g/m*3 14.7 C 0 km/h
80 29-08-2010 15:56:02 15.3 C 9.4 g/m*3 15.3 C 0 km/h
81 29-08-2010 16:08:02 15.1 C 9.03 g/m*3 15.1 C 0 km/h
82 29-08-2010 16:20:02 15.5 C 8.99 g/m*3 15.5 C 0 km/h
83 29-08-2010 16:32:02 15.9 C 8.53 g/m*3 15.9 C 0 km/h
84 29-08-2010 16:44:03 16.2 C 8.14 g/m*3 16.2 C 0 km/h
85 29-08-2010 16:56:02 16.1 C 7.81 g/m*3 16.1 C 0 km/h
86 29-08-2010 17:08:02 15.9 C 7.85 g/m*3 15.9 C 0 km/h
87 29-08-2010 17:20:02 15.6 C 7.98 g/m*3 15.6 C 0 km/h
88 29-08-2010 17:32:02 15.2 C 8.18 g/m*3 15.2 C 0 km/h
89 29-08-2010 17:44:02 14.1 C 8.74 g/m*3 14.1 C 0 km/h
90 29-08-2010 17:56:02 14 C 8.68 g/m*3 14 C 0 km/h
91 29-08-2010 18:08:02 13.8 C 8.94 g/m*3 13.8 C 0 km/h
92 29-08-2010 18:20:01 13.4 C 9.3 g/m*3 13.4 C 0 km/h
93 29-08-2010 18:32:01 13.1 C 9.59 g/m*3 13.1 C 0 km/h
94 29-08-2010 18:44:01 12.7 C 9.46 g/m*3 12.7 C 0 km/h
95 29-08-2010 18:56:02 12.3 C 9.23 g/m*3 12.3 C 0 km/h
96 29-08-2010 19:08:02 12.2 C 9.28 g/m*3 12.2 C 0 km/h
97 29-08-2010 19:20:01 12.2 C 9.39 g/m*3 12.2 C 0 km/h
98 29-08-2010 19:32:02 12 C 9.38 g/m*3 12 C 0 km/h
99 29-08-2010 19:44:02 11.8 C 9.26 g/m*3 11.8 C 0 km/h
100 29-08-2010 19:56:02 11.8 C 9.16 g/m*3 11.8 C 0 km/h
Sensor: Nr:Datum:Temp:Abs-Feuchte:Windchill:Wind:
Aussen-T/F 101 29-08-2010 20:08:02 11.8 C 8.95 g/m*3 11.8 C 0 km/h
102 29-08-2010 20:20:03 11.8 C 8.95 g/m*3 11.8 C 0 km/h
103 29-08-2010 20:32:02 11.7 C 8.89 g/m*3 11.7 C 0 km/h
104 29-08-2010 20:44:02 11.7 C 8.99 g/m*3 11.7 C 0 km/h
105 29-08-2010 20:56:01 11.9 C 9 g/m*3 11.9 C 0 km/h
106 29-08-2010 21:08:01 12 C 8.95 g/m*3 12 C 0 km/h
107 29-08-2010 21:20:02 12.2 C 8.96 g/m*3 12.2 C 0 km/h
108 29-08-2010 21:32:01 12.3 C 9.01 g/m*3 12.3 C 0 km/h
109 29-08-2010 21:44:01 12 C 8.95 g/m*3 12 C 0 km/h
110 29-08-2010 21:56:02 9.7 C 7.74 g/m*3 9.7 C 0 km/h
111 29-08-2010 22:09:03 9.3 C 7.82 g/m*3 9.3 C 0 km/h
112 29-08-2010 22:21:03 9.2 C 7.95 g/m*3 9.2 C 0 km/h
113 29-08-2010 22:33:03 9.2 C 8.04 g/m*3 9.2 C 0 km/h
114 29-08-2010 22:45:03 9.2 C 8.13 g/m*3 9.2 C 0 km/h
115 29-08-2010 22:57:03 9.1 C 8.16 g/m*3 9.1 C 0 km/h
116 29-08-2010 23:09:03 9 C 8.11 g/m*3 9 C 0 km/h
117 29-08-2010 23:21:03 9 C 8.11 g/m*3 9 C 0 km/h
118 29-08-2010 23:33:03 9 C 8.11 g/m*3 9 C 0 km/h
119 29-08-2010 23:45:03 9.3 C 8.27 g/m*3 9.3 C 0 km/h
120 29-08-2010 23:57:03 9.3 C 8.18 g/m*3 9.3 C 0 km/h

Legende:
   Min
   Max


Maximal/Minimal-Werte vom 29.08.2010 - 29.08.2010

Sensor Min Max Avg
Temp
(Aussen-T/F)
9 °C
29-08-2010  23:09:03
17.1 °C
29-08-2010  14:44:02
13.03 °C
Abs-Feuchte
(Aussen-T/F)
7.74 g/m*3
29-08-2010  21:56:02
9.76 g/m*3
29-08-2010  12:32:01
8.43 g/m*3
Windchill
(Aussen-T/F)
9 C
29-08-2010  23:09:03
17.1 C
29-08-2010  14:44:02
12.92 C

Die Daten stammen von einer Davis Vantage Pro 2 Wetter-Station und werden unter Linux mit der Software wview2wettercgi und aufbereitet. Alle Angaben erfolgen ohne Gewähr für ihre Vollständigkeit oder Richtigkeit.
Kontakt: Rainer Krienke krienke@uni-koblenz.de . Meine Webseiten an der Uni Koblenz oder privat.
Version: $Revision: 0.78 $